sensor_id;sensor_type;location;lat;lon;timestamp;P1;durP1;ratioP1;P2;durP2;ratioP2
12635;SDS011;6383;50.830;7.210;2022-11-14T00:01:07;15.27;;;9.18;;
12635;SDS011;6383;50.830;7.210;2022-11-14T00:03:38;16.35;;;9.27;;
12635;SDS011;6383;50.830;7.210;2022-11-14T00:06:07;14.60;;;8.40;;
12635;SDS011;6383;50.830;7.210;2022-11-14T00:08:36;17.88;;;9.27;;
12635;SDS011;6383;50.830;7.210;2022-11-14T00:11:06;19.33;;;9.77;;
12635;SDS011;6383;50.830;7.210;2022-11-14T00:13:35;16.73;;;8.77;;
12635;SDS011;6383;50.830;7.210;2022-11-14T00:16:03;18.45;;;10.80;;
12635;SDS011;6383;50.830;7.210;2022-11-14T00:18:31;14.30;;;8.98;;
12635;SDS011;6383;50.830;7.210;2022-11-14T00:20:59;14.18;;;8.23;;
12635;SDS011;6383;50.830;7.210;2022-11-14T00:23:27;13.18;;;7.63;;
12635;SDS011;6383;50.830;7.210;2022-11-14T00:25:56;12.30;;;7.90;;
12635;SDS011;6383;50.830;7.210;2022-11-14T00:28:26;12.18;;;8.02;;
12635;SDS011;6383;50.830;7.210;2022-11-14T00:30:55;10.45;;;7.43;;
12635;SDS011;6383;50.830;7.210;2022-11-14T00:33:23;15.00;;;8.18;;
12635;SDS011;6383;50.830;7.210;2022-11-14T00:35:51;14.43;;;7.82;;
12635;SDS011;6383;50.830;7.210;2022-11-14T00:38:19;11.00;;;7.72;;
12635;SDS011;6383;50.830;7.210;2022-11-14T00:40:47;9.32;;;6.25;;
12635;SDS011;6383;50.830;7.210;2022-11-14T00:43:15;9.07;;;6.85;;
12635;SDS011;6383;50.830;7.210;2022-11-14T00:45:44;10.63;;;7.07;;
12635;SDS011;6383;50.830;7.210;2022-11-14T00:48:13;11.20;;;7.22;;
12635;SDS011;6383;50.830;7.210;2022-11-14T00:50:41;9.88;;;7.07;;
12635;SDS011;6383;50.830;7.210;2022-11-14T00:53:09;12.07;;;6.38;;
12635;SDS011;6383;50.830;7.210;2022-11-14T00:55:37;7.72;;;5.03;;
12635;SDS011;6383;50.830;7.210;2022-11-14T00:58:05;6.80;;;5.00;;
12635;SDS011;6383;50.830;7.210;2022-11-14T01:00:33;15.18;;;6.82;;
12635;SDS011;6383;50.830;7.210;2022-11-14T01:03:02;8.27;;;5.78;;
12635;SDS011;6383;50.830;7.210;2022-11-14T01:05:31;10.15;;;6.97;;
12635;SDS011;6383;50.830;7.210;2022-11-14T01:07:59;7.70;;;5.97;;
12635;SDS011;6383;50.830;7.210;2022-11-14T01:10:27;13.68;;;6.82;;
12635;SDS011;6383;50.830;7.210;2022-11-14T01:12:55;7.85;;;5.85;;
12635;SDS011;6383;50.830;7.210;2022-11-14T01:15:24;7.70;;;5.55;;
12635;SDS011;6383;50.830;7.210;2022-11-14T01:17:52;7.55;;;5.72;;
12635;SDS011;6383;50.830;7.210;2022-11-14T01:20:23;8.02;;;5.78;;
12635;SDS011;6383;50.830;7.210;2022-11-14T01:22:51;10.20;;;5.43;;
12635;SDS011;6383;50.830;7.210;2022-11-14T01:25:20;6.93;;;5.25;;
12635;SDS011;6383;50.830;7.210;2022-11-14T01:27:48;9.90;;;5.82;;
12635;SDS011;6383;50.830;7.210;2022-11-14T01:30:17;9.43;;;5.63;;
12635;SDS011;6383;50.830;7.210;2022-11-14T01:32:45;7.72;;;4.53;;
12635;SDS011;6383;50.830;7.210;2022-11-14T01:35:14;7.18;;;4.88;;
12635;SDS011;6383;50.830;7.210;2022-11-14T01:37:44;6.75;;;5.00;;
12635;SDS011;6383;50.830;7.210;2022-11-14T01:40:14;6.78;;;4.60;;
12635;SDS011;6383;50.830;7.210;2022-11-14T01:45:46;5.50;;;4.70;;
12635;SDS011;6383;50.830;7.210;2022-11-14T01:48:19;7.20;;;4.55;;
12635;SDS011;6383;50.830;7.210;2022-11-14T01:50:57;5.05;;;4.40;;
12635;SDS011;6383;50.830;7.210;2022-11-14T01:53:30;6.68;;;4.15;;
12635;SDS011;6383;50.830;7.210;2022-11-14T01:55:59;5.28;;;4.22;;
12635;SDS011;6383;50.830;7.210;2022-11-14T01:58:32;10.07;;;5.18;;
12635;SDS011;6383;50.830;7.210;2022-11-14T02:01:02;7.78;;;4.85;;
12635;SDS011;6383;50.830;7.210;2022-11-14T02:03:30;6.03;;;4.18;;
12635;SDS011;6383;50.830;7.210;2022-11-14T02:06:00;5.53;;;4.70;;
12635;SDS011;6383;50.830;7.210;2022-11-14T02:08:32;6.78;;;4.85;;
12635;SDS011;6383;50.830;7.210;2022-11-14T02:11:00;5.90;;;4.82;;
12635;SDS011;6383;50.830;7.210;2022-11-14T02:13:28;5.57;;;4.40;;
12635;SDS011;6383;50.830;7.210;2022-11-14T02:15:56;5.80;;;3.80;;
12635;SDS011;6383;50.830;7.210;2022-11-14T02:18:24;6.20;;;4.40;;
12635;SDS011;6383;50.830;7.210;2022-11-14T02:20:54;5.43;;;4.85;;
12635;SDS011;6383;50.830;7.210;2022-11-14T02:23:25;7.28;;;4.90;;
12635;SDS011;6383;50.830;7.210;2022-11-14T02:25:54;6.32;;;4.82;;
12635;SDS011;6383;50.830;7.210;2022-11-14T02:28:22;7.78;;;4.85;;
12635;SDS011;6383;50.830;7.210;2022-11-14T02:30:50;5.80;;;4.43;;
12635;SDS011;6383;50.830;7.210;2022-11-14T02:33:18;7.70;;;4.72;;
12635;SDS011;6383;50.830;7.210;2022-11-14T02:35:47;4.97;;;4.07;;
12635;SDS011;6383;50.830;7.210;2022-11-14T02:38:17;4.05;;;3.65;;
12635;SDS011;6383;50.830;7.210;2022-11-14T02:40:46;3.47;;;3.17;;
12635;SDS011;6383;50.830;7.210;2022-11-14T02:43:14;4.95;;;3.90;;
12635;SDS011;6383;50.830;7.210;2022-11-14T02:45:43;3.83;;;3.42;;
12635;SDS011;6383;50.830;7.210;2022-11-14T02:48:11;4.28;;;3.85;;
12635;SDS011;6383;50.830;7.210;2022-11-14T02:50:39;4.75;;;4.22;;
12635;SDS011;6383;50.830;7.210;2022-11-14T02:53:09;5.50;;;4.07;;
12635;SDS011;6383;50.830;7.210;2022-11-14T02:55:38;6.68;;;4.25;;
12635;SDS011;6383;50.830;7.210;2022-11-14T02:58:05;5.90;;;4.82;;
12635;SDS011;6383;50.830;7.210;2022-11-14T03:00:34;6.13;;;4.38;;
12635;SDS011;6383;50.830;7.210;2022-11-14T03:03:02;6.03;;;3.83;;
12635;SDS011;6383;50.830;7.210;2022-11-14T03:05:30;5.05;;;3.78;;
12635;SDS011;6383;50.830;7.210;2022-11-14T03:07:58;5.07;;;4.57;;
12635;SDS011;6383;50.830;7.210;2022-11-14T03:10:26;5.88;;;4.43;;
12635;SDS011;6383;50.830;7.210;2022-11-14T03:12:56;5.80;;;4.13;;
12635;SDS011;6383;50.830;7.210;2022-11-14T03:15:25;7.63;;;3.60;;
12635;SDS011;6383;50.830;7.210;2022-11-14T03:17:52;4.15;;;3.30;;
12635;SDS011;6383;50.830;7.210;2022-11-14T03:20:20;3.72;;;3.10;;
12635;SDS011;6383;50.830;7.210;2022-11-14T03:22:48;5.10;;;3.28;;
12635;SDS011;6383;50.830;7.210;2022-11-14T03:25:17;3.65;;;3.10;;
12635;SDS011;6383;50.830;7.210;2022-11-14T03:27:45;3.30;;;3.00;;
12635;SDS011;6383;50.830;7.210;2022-11-14T03:30:14;5.38;;;3.05;;
12635;SDS011;6383;50.830;7.210;2022-11-14T03:32:43;4.70;;;3.38;;
12635;SDS011;6383;50.830;7.210;2022-11-14T03:35:11;3.97;;;3.33;;
12635;SDS011;6383;50.830;7.210;2022-11-14T03:37:40;3.80;;;3.40;;
12635;SDS011;6383;50.830;7.210;2022-11-14T03:40:08;5.97;;;3.85;;
12635;SDS011;6383;50.830;7.210;2022-11-14T03:42:36;3.58;;;3.28;;
12635;SDS011;6383;50.830;7.210;2022-11-14T03:45:05;4.97;;;4.00;;
12635;SDS011;6383;50.830;7.210;2022-11-14T03:47:35;4.45;;;3.80;;
12635;SDS011;6383;50.830;7.210;2022-11-14T03:50:04;4.93;;;2.90;;
12635;SDS011;6383;50.830;7.210;2022-11-14T03:52:32;5.20;;;3.67;;
12635;SDS011;6383;50.830;7.210;2022-11-14T03:55:00;3.92;;;2.83;;
12635;SDS011;6383;50.830;7.210;2022-11-14T03:57:28;4.65;;;3.35;;
12635;SDS011;6383;50.830;7.210;2022-11-14T03:59:56;4.15;;;3.75;;
12635;SDS011;6383;50.830;7.210;2022-11-14T04:02:24;4.55;;;3.35;;
12635;SDS011;6383;50.830;7.210;2022-11-14T04:04:53;4.35;;;2.92;;
12635;SDS011;6383;50.830;7.210;2022-11-14T04:07:21;4.80;;;3.17;;
12635;SDS011;6383;50.830;7.210;2022-11-14T04:09:50;4.60;;;3.30;;
12635;SDS011;6383;50.830;7.210;2022-11-14T04:12:19;5.40;;;3.33;;
12635;SDS011;6383;50.830;7.210;2022-11-14T04:14:48;4.28;;;3.65;;
12635;SDS011;6383;50.830;7.210;2022-11-14T04:17:17;5.90;;;3.83;;
12635;SDS011;6383;50.830;7.210;2022-11-14T04:19:46;6.80;;;4.22;;
12635;SDS011;6383;50.830;7.210;2022-11-14T04:22:16;4.70;;;3.92;;
12635;SDS011;6383;50.830;7.210;2022-11-14T04:24:45;5.75;;;4.00;;
12635;SDS011;6383;50.830;7.210;2022-11-14T04:27:13;9.48;;;3.72;;
12635;SDS011;6383;50.830;7.210;2022-11-14T04:29:41;4.90;;;4.30;;
12635;SDS011;6383;50.830;7.210;2022-11-14T04:32:08;5.53;;;3.92;;
12635;SDS011;6383;50.830;7.210;2022-11-14T04:34:36;4.30;;;3.47;;
12635;SDS011;6383;50.830;7.210;2022-11-14T04:37:05;7.35;;;4.05;;
12635;SDS011;6383;50.830;7.210;2022-11-14T04:39:36;4.38;;;3.97;;
12635;SDS011;6383;50.830;7.210;2022-11-14T04:42:05;6.20;;;4.15;;
12635;SDS011;6383;50.830;7.210;2022-11-14T04:44:33;4.97;;;4.45;;
12635;SDS011;6383;50.830;7.210;2022-11-14T04:47:00;4.43;;;4.00;;
12635;SDS011;6383;50.830;7.210;2022-11-14T04:49:29;4.78;;;4.20;;
12635;SDS011;6383;50.830;7.210;2022-11-14T04:51:57;4.80;;;4.20;;
12635;SDS011;6383;50.830;7.210;2022-11-14T04:54:25;4.80;;;3.92;;
12635;SDS011;6383;50.830;7.210;2022-11-14T04:56:55;5.32;;;4.40;;
12635;SDS011;6383;50.830;7.210;2022-11-14T04:59:23;7.07;;;4.22;;
12635;SDS011;6383;50.830;7.210;2022-11-14T05:01:51;5.75;;;4.10;;
12635;SDS011;6383;50.830;7.210;2022-11-14T05:04:18;4.72;;;3.70;;
12635;SDS011;6383;50.830;7.210;2022-11-14T05:06:47;4.03;;;3.63;;
12635;SDS011;6383;50.830;7.210;2022-11-14T05:09:17;9.90;;;4.10;;
12635;SDS011;6383;50.830;7.210;2022-11-14T05:11:46;5.03;;;4.55;;
12635;SDS011;6383;50.830;7.210;2022-11-14T05:14:14;4.78;;;3.97;;
12635;SDS011;6383;50.830;7.210;2022-11-14T05:16:43;5.97;;;3.85;;
12635;SDS011;6383;50.830;7.210;2022-11-14T05:19:12;4.30;;;3.58;;
12635;SDS011;6383;50.830;7.210;2022-11-14T05:21:41;6.35;;;4.25;;
12635;SDS011;6383;50.830;7.210;2022-11-14T05:24:10;6.15;;;4.38;;
12635;SDS011;6383;50.830;7.210;2022-11-14T05:26:39;5.68;;;3.80;;
12635;SDS011;6383;50.830;7.210;2022-11-14T05:29:07;7.38;;;4.40;;
12635;SDS011;6383;50.830;7.210;2022-11-14T05:31:37;4.35;;;3.95;;
12635;SDS011;6383;50.830;7.210;2022-11-14T05:34:06;4.32;;;3.70;;
12635;SDS011;6383;50.830;7.210;2022-11-14T05:36:35;4.45;;;3.83;;
12635;SDS011;6383;50.830;7.210;2022-11-14T05:39:04;6.05;;;4.13;;
12635;SDS011;6383;50.830;7.210;2022-11-14T05:41:33;4.35;;;3.95;;
12635;SDS011;6383;50.830;7.210;2022-11-14T05:44:02;5.82;;;4.38;;
12635;SDS011;6383;50.830;7.210;2022-11-14T05:46:30;8.70;;;4.68;;
12635;SDS011;6383;50.830;7.210;2022-11-14T05:49:01;4.45;;;4.00;;
12635;SDS011;6383;50.830;7.210;2022-11-14T05:51:29;4.80;;;4.07;;
12635;SDS011;6383;50.830;7.210;2022-11-14T05:53:58;4.78;;;3.50;;
12635;SDS011;6383;50.830;7.210;2022-11-14T05:56:26;4.97;;;4.05;;
12635;SDS011;6383;50.830;7.210;2022-11-14T05:58:55;4.05;;;3.20;;
12635;SDS011;6383;50.830;7.210;2022-11-14T06:01:24;9.98;;;3.67;;
12635;SDS011;6383;50.830;7.210;2022-11-14T06:03:53;5.60;;;4.15;;
12635;SDS011;6383;50.830;7.210;2022-11-14T06:06:22;5.97;;;4.47;;
12635;SDS011;6383;50.830;7.210;2022-11-14T06:08:51;8.57;;;5.55;;
12635;SDS011;6383;50.830;7.210;2022-11-14T06:11:19;7.72;;;4.82;;
12635;SDS011;6383;50.830;7.210;2022-11-14T06:13:49;5.32;;;4.80;;
12635;SDS011;6383;50.830;7.210;2022-11-14T06:16:18;5.78;;;5.15;;
12635;SDS011;6383;50.830;7.210;2022-11-14T06:18:46;5.35;;;4.38;;
12635;SDS011;6383;50.830;7.210;2022-11-14T06:21:16;5.53;;;4.25;;
12635;SDS011;6383;50.830;7.210;2022-11-14T06:23:48;4.70;;;4.07;;
12635;SDS011;6383;50.830;7.210;2022-11-14T06:26:19;8.50;;;4.63;;
12635;SDS011;6383;50.830;7.210;2022-11-14T06:28:48;5.32;;;4.53;;
12635;SDS011;6383;50.830;7.210;2022-11-14T06:31:18;7.22;;;4.72;;
12635;SDS011;6383;50.830;7.210;2022-11-14T06:33:49;4.95;;;4.43;;
12635;SDS011;6383;50.830;7.210;2022-11-14T06:36:18;7.80;;;5.50;;
12635;SDS011;6383;50.830;7.210;2022-11-14T06:38:48;6.22;;;5.53;;
12635;SDS011;6383;50.830;7.210;2022-11-14T06:41:17;9.98;;;5.68;;
12635;SDS011;6383;50.830;7.210;2022-11-14T06:43:47;8.43;;;5.97;;
12635;SDS011;6383;50.830;7.210;2022-11-14T06:46:16;10.57;;;5.95;;
12635;SDS011;6383;50.830;7.210;2022-11-14T06:48:46;8.40;;;6.47;;
12635;SDS011;6383;50.830;7.210;2022-11-14T06:51:16;8.07;;;6.30;;
12635;SDS011;6383;50.830;7.210;2022-11-14T06:53:45;11.70;;;7.38;;
12635;SDS011;6383;50.830;7.210;2022-11-14T06:56:15;8.25;;;6.53;;
12635;SDS011;6383;50.830;7.210;2022-11-14T06:58:46;13.88;;;6.70;;
12635;SDS011;6383;50.830;7.210;2022-11-14T07:01:17;11.25;;;6.82;;
12635;SDS011;6383;50.830;7.210;2022-11-14T07:03:46;11.15;;;6.95;;
12635;SDS011;6383;50.830;7.210;2022-11-14T07:06:16;7.40;;;6.47;;
12635;SDS011;6383;50.830;7.210;2022-11-14T07:08:47;9.25;;;6.93;;
12635;SDS011;6383;50.830;7.210;2022-11-14T07:11:17;8.18;;;6.50;;
12635;SDS011;6383;50.830;7.210;2022-11-14T07:13:50;7.97;;;7.00;;
12635;SDS011;6383;50.830;7.210;2022-11-14T07:16:22;10.98;;;6.78;;
12635;SDS011;6383;50.830;7.210;2022-11-14T07:18:52;9.27;;;7.53;;
12635;SDS011;6383;50.830;7.210;2022-11-14T07:21:21;16.00;;;8.10;;
12635;SDS011;6383;50.830;7.210;2022-11-14T07:23:50;10.23;;;7.00;;
12635;SDS011;6383;50.830;7.210;2022-11-14T07:26:19;9.50;;;7.28;;
12635;SDS011;6383;50.830;7.210;2022-11-14T07:28:47;12.48;;;7.68;;
12635;SDS011;6383;50.830;7.210;2022-11-14T07:31:16;11.20;;;9.25;;
12635;SDS011;6383;50.830;7.210;2022-11-14T07:33:46;11.52;;;8.63;;
12635;SDS011;6383;50.830;7.210;2022-11-14T07:36:16;12.32;;;7.70;;
12635;SDS011;6383;50.830;7.210;2022-11-14T07:38:45;14.77;;;8.85;;
12635;SDS011;6383;50.830;7.210;2022-11-14T07:41:14;11.48;;;9.00;;
12635;SDS011;6383;50.830;7.210;2022-11-14T07:43:44;13.63;;;9.82;;
12635;SDS011;6383;50.830;7.210;2022-11-14T07:46:13;14.60;;;9.27;;
12635;SDS011;6383;50.830;7.210;2022-11-14T07:48:44;13.88;;;9.90;;
12635;SDS011;6383;50.830;7.210;2022-11-14T07:51:14;12.20;;;10.20;;
12635;SDS011;6383;50.830;7.210;2022-11-14T07:53:43;14.82;;;10.13;;
12635;SDS011;6383;50.830;7.210;2022-11-14T07:56:12;15.23;;;11.90;;
12635;SDS011;6383;50.830;7.210;2022-11-14T07:58:42;17.83;;;11.52;;
12635;SDS011;6383;50.830;7.210;2022-11-14T08:01:12;19.52;;;14.00;;
12635;SDS011;6383;50.830;7.210;2022-11-14T08:03:41;21.65;;;15.75;;
12635;SDS011;6383;50.830;7.210;2022-11-14T08:06:09;24.25;;;15.95;;
12635;SDS011;6383;50.830;7.210;2022-11-14T08:08:40;23.65;;;16.55;;
12635;SDS011;6383;50.830;7.210;2022-11-14T08:11:09;23.92;;;16.80;;
12635;SDS011;6383;50.830;7.210;2022-11-14T08:13:37;25.95;;;16.30;;
12635;SDS011;6383;50.830;7.210;2022-11-14T08:16:07;22.58;;;16.77;;
12635;SDS011;6383;50.830;7.210;2022-11-14T08:18:38;27.05;;;17.83;;
12635;SDS011;6383;50.830;7.210;2022-11-14T08:21:06;28.00;;;18.17;;
12635;SDS011;6383;50.830;7.210;2022-11-14T08:23:36;27.98;;;19.00;;
12635;SDS011;6383;50.830;7.210;2022-11-14T08:26:03;27.08;;;17.90;;
12635;SDS011;6383;50.830;7.210;2022-11-14T08:28:31;25.10;;;17.52;;
12635;SDS011;6383;50.830;7.210;2022-11-14T08:30:59;28.63;;;17.90;;
12635;SDS011;6383;50.830;7.210;2022-11-14T08:37:01;27.23;;;19.27;;
12635;SDS011;6383;50.830;7.210;2022-11-14T08:39:59;28.80;;;17.90;;
12635;SDS011;6383;50.830;7.210;2022-11-14T08:42:49;29.10;;;19.95;;
12635;SDS011;6383;50.830;7.210;2022-11-14T08:45:33;31.38;;;19.23;;
12635;SDS011;6383;50.830;7.210;2022-11-14T08:48:08;29.10;;;19.08;;
12635;SDS011;6383;50.830;7.210;2022-11-14T08:56:26;35.85;;;19.00;;
12635;SDS011;6383;50.830;7.210;2022-11-14T08:58:56;30.95;;;19.40;;
12635;SDS011;6383;50.830;7.210;2022-11-14T09:01:28;29.30;;;19.55;;
12635;SDS011;6383;50.830;7.210;2022-11-14T09:04:04;27.05;;;18.00;;
12635;SDS011;6383;50.830;7.210;2022-11-14T09:10:09;27.95;;;18.17;;
12635;SDS011;6383;50.830;7.210;2022-11-14T09:12:45;26.27;;;18.67;;
12635;SDS011;6383;50.830;7.210;2022-11-14T09:15:16;27.63;;;18.75;;
12635;SDS011;6383;50.830;7.210;2022-11-14T09:17:44;28.55;;;17.90;;
12635;SDS011;6383;50.830;7.210;2022-11-14T09:20:12;32.30;;;19.20;;
12635;SDS011;6383;50.830;7.210;2022-11-14T09:22:41;31.42;;;19.42;;
12635;SDS011;6383;50.830;7.210;2022-11-14T09:25:11;26.75;;;17.42;;
12635;SDS011;6383;50.830;7.210;2022-11-14T09:27:38;26.38;;;18.10;;
12635;SDS011;6383;50.830;7.210;2022-11-14T09:30:08;29.17;;;17.75;;
12635;SDS011;6383;50.830;7.210;2022-11-14T09:32:38;30.83;;;19.60;;
12635;SDS011;6383;50.830;7.210;2022-11-14T09:35:07;30.25;;;19.17;;
12635;SDS011;6383;50.830;7.210;2022-11-14T09:37:35;28.77;;;17.90;;
12635;SDS011;6383;50.830;7.210;2022-11-14T09:40:04;27.55;;;18.52;;
12635;SDS011;6383;50.830;7.210;2022-11-14T09:42:39;33.80;;;19.70;;
12635;SDS011;6383;50.830;7.210;2022-11-14T09:45:23;33.60;;;19.65;;
12635;SDS011;6383;50.830;7.210;2022-11-14T09:47:53;30.02;;;18.77;;
12635;SDS011;6383;50.830;7.210;2022-11-14T09:50:29;32.97;;;19.02;;
12635;SDS011;6383;50.830;7.210;2022-11-14T09:53:02;25.85;;;18.58;;
12635;SDS011;6383;50.830;7.210;2022-11-14T09:55:38;25.77;;;17.67;;
12635;SDS011;6383;50.830;7.210;2022-11-14T09:58:08;30.58;;;19.70;;
12635;SDS011;6383;50.830;7.210;2022-11-14T10:00:45;40.40;;;19.92;;
12635;SDS011;6383;50.830;7.210;2022-11-14T10:03:20;33.55;;;20.15;;
12635;SDS011;6383;50.830;7.210;2022-11-14T10:06:00;28.20;;;19.17;;
12635;SDS011;6383;50.830;7.210;2022-11-14T10:08:44;30.87;;;18.97;;
12635;SDS011;6383;50.830;7.210;2022-11-14T10:11:28;26.17;;;18.80;;
12635;SDS011;6383;50.830;7.210;2022-11-14T10:14:21;28.58;;;18.15;;
12635;SDS011;6383;50.830;7.210;2022-11-14T10:17:04;34.70;;;20.33;;
12635;SDS011;6383;50.830;7.210;2022-11-14T10:19:44;32.95;;;19.10;;
12635;SDS011;6383;50.830;7.210;2022-11-14T10:22:23;29.05;;;17.92;;
12635;SDS011;6383;50.830;7.210;2022-11-14T10:25:12;28.90;;;18.55;;
12635;SDS011;6383;50.830;7.210;2022-11-14T10:27:52;27.73;;;17.40;;
12635;SDS011;6383;50.830;7.210;2022-11-14T10:30:36;25.77;;;17.50;;
12635;SDS011;6383;50.830;7.210;2022-11-14T10:33:11;23.85;;;16.35;;
12635;SDS011;6383;50.830;7.210;2022-11-14T10:35:52;24.30;;;16.30;;
12635;SDS011;6383;50.830;7.210;2022-11-14T10:38:27;22.75;;;17.30;;
12635;SDS011;6383;50.830;7.210;2022-11-14T10:40:59;28.30;;;18.88;;
12635;SDS011;6383;50.830;7.210;2022-11-14T10:43:31;24.20;;;17.80;;
12635;SDS011;6383;50.830;7.210;2022-11-14T10:46:06;22.88;;;16.67;;
12635;SDS011;6383;50.830;7.210;2022-11-14T10:48:39;26.63;;;17.05;;
12635;SDS011;6383;50.830;7.210;2022-11-14T10:51:12;25.80;;;17.70;;
12635;SDS011;6383;50.830;7.210;2022-11-14T10:53:51;23.65;;;16.80;;
12635;SDS011;6383;50.830;7.210;2022-11-14T10:56:23;25.52;;;17.23;;
12635;SDS011;6383;50.830;7.210;2022-11-14T10:58:51;25.73;;;18.05;;
12635;SDS011;6383;50.830;7.210;2022-11-14T11:01:35;27.40;;;16.83;;
12635;SDS011;6383;50.830;7.210;2022-11-14T11:04:21;24.75;;;18.15;;
12635;SDS011;6383;50.830;7.210;2022-11-14T11:06:54;26.35;;;18.67;;
12635;SDS011;6383;50.830;7.210;2022-11-14T11:09:24;29.52;;;18.25;;
12635;SDS011;6383;50.830;7.210;2022-11-14T11:12:14;26.42;;;19.48;;
12635;SDS011;6383;50.830;7.210;2022-11-14T11:14:46;24.42;;;17.27;;
12635;SDS011;6383;50.830;7.210;2022-11-14T11:17:18;26.92;;;18.40;;
12635;SDS011;6383;50.830;7.210;2022-11-14T11:19:49;28.00;;;18.33;;
12635;SDS011;6383;50.830;7.210;2022-11-14T11:22:25;25.98;;;18.45;;
12635;SDS011;6383;50.830;7.210;2022-11-14T11:24:55;31.58;;;18.80;;
12635;SDS011;6383;50.830;7.210;2022-11-14T11:27:24;26.17;;;18.20;;
12635;SDS011;6383;50.830;7.210;2022-11-14T11:30:04;28.38;;;19.88;;
12635;SDS011;6383;50.830;7.210;2022-11-14T11:32:37;30.70;;;20.15;;
12635;SDS011;6383;50.830;7.210;2022-11-14T11:37:40;31.95;;;19.95;;
12635;SDS011;6383;50.830;7.210;2022-11-14T11:40:14;29.48;;;20.17;;
12635;SDS011;6383;50.830;7.210;2022-11-14T11:42:48;29.38;;;20.90;;
12635;SDS011;6383;50.830;7.210;2022-11-14T11:45:23;31.38;;;19.33;;
12635;SDS011;6383;50.830;7.210;2022-11-14T11:47:55;32.45;;;19.30;;
12635;SDS011;6383;50.830;7.210;2022-11-14T11:50:26;30.92;;;19.40;;
12635;SDS011;6383;50.830;7.210;2022-11-14T12:03:03;25.90;;;18.27;;
12635;SDS011;6383;50.830;7.210;2022-11-14T12:16:22;24.35;;;17.23;;
12635;SDS011;6383;50.830;7.210;2022-11-14T12:22:09;24.63;;;17.40;;
12635;SDS011;6383;50.830;7.210;2022-11-14T12:24:54;23.15;;;16.60;;
12635;SDS011;6383;50.830;7.210;2022-11-14T12:27:36;28.13;;;17.63;;
12635;SDS011;6383;50.830;7.210;2022-11-14T12:30:22;25.85;;;17.77;;
12635;SDS011;6383;50.830;7.210;2022-11-14T12:42:55;24.35;;;18.20;;
12635;SDS011;6383;50.830;7.210;2022-11-14T12:48:32;22.05;;;16.73;;
12635;SDS011;6383;50.830;7.210;2022-11-14T12:51:07;21.13;;;18.10;;
12635;SDS011;6383;50.830;7.210;2022-11-14T12:57:10;27.88;;;17.77;;
12635;SDS011;6383;50.830;7.210;2022-11-14T13:00:08;27.77;;;18.17;;
12635;SDS011;6383;50.830;7.210;2022-11-14T13:05:46;26.67;;;18.77;;
12635;SDS011;6383;50.830;7.210;2022-11-14T13:08:35;23.75;;;17.30;;
12635;SDS011;6383;50.830;7.210;2022-11-14T13:11:34;24.77;;;17.27;;
12635;SDS011;6383;50.830;7.210;2022-11-14T13:14:20;22.83;;;16.88;;
12635;SDS011;6383;50.830;7.210;2022-11-14T13:17:10;23.70;;;16.73;;
12635;SDS011;6383;50.830;7.210;2022-11-14T13:26:35;33.78;;;20.65;;
12635;SDS011;6383;50.830;7.210;2022-11-14T13:35:41;40.70;;;25.08;;
12635;SDS011;6383;50.830;7.210;2022-11-14T13:38:30;48.00;;;31.45;;
12635;SDS011;6383;50.830;7.210;2022-11-14T13:41:32;26.15;;;18.42;;
12635;SDS011;6383;50.830;7.210;2022-11-14T13:44:33;23.90;;;18.60;;
12635;SDS011;6383;50.830;7.210;2022-11-14T13:47:28;25.63;;;17.40;;
12635;SDS011;6383;50.830;7.210;2022-11-14T13:50:18;25.77;;;17.38;;
12635;SDS011;6383;50.830;7.210;2022-11-14T13:52:53;21.42;;;16.00;;
12635;SDS011;6383;50.830;7.210;2022-11-14T13:55:21;22.38;;;15.45;;
12635;SDS011;6383;50.830;7.210;2022-11-14T13:58:03;20.27;;;16.60;;
12635;SDS011;6383;50.830;7.210;2022-11-14T14:00:49;24.35;;;17.27;;
12635;SDS011;6383;50.830;7.210;2022-11-14T14:03:31;20.75;;;16.38;;
12635;SDS011;6383;50.830;7.210;2022-11-14T14:06:17;23.65;;;16.75;;
12635;SDS011;6383;50.830;7.210;2022-11-14T14:08:59;23.75;;;17.30;;
12635;SDS011;6383;50.830;7.210;2022-11-14T14:11:50;25.00;;;16.58;;
12635;SDS011;6383;50.830;7.210;2022-11-14T14:14:49;19.00;;;14.57;;
12635;SDS011;6383;50.830;7.210;2022-11-14T14:17:31;20.92;;;15.85;;
12635;SDS011;6383;50.830;7.210;2022-11-14T14:20:14;18.73;;;14.77;;
12635;SDS011;6383;50.830;7.210;2022-11-14T14:22:51;20.90;;;14.45;;
12635;SDS011;6383;50.830;7.210;2022-11-14T14:25:29;19.90;;;15.15;;
12635;SDS011;6383;50.830;7.210;2022-11-14T14:28:05;17.77;;;14.15;;
12635;SDS011;6383;50.830;7.210;2022-11-14T14:30:40;17.08;;;14.02;;
12635;SDS011;6383;50.830;7.210;2022-11-14T14:33:27;17.98;;;14.20;;
12635;SDS011;6383;50.830;7.210;2022-11-14T14:36:14;17.50;;;13.45;;
12635;SDS011;6383;50.830;7.210;2022-11-14T14:38:45;19.13;;;14.32;;
12635;SDS011;6383;50.830;7.210;2022-11-14T14:41:15;19.65;;;13.85;;
12635;SDS011;6383;50.830;7.210;2022-11-14T14:43:50;20.20;;;14.35;;
12635;SDS011;6383;50.830;7.210;2022-11-14T14:46:31;18.90;;;13.50;;
12635;SDS011;6383;50.830;7.210;2022-11-14T14:49:01;16.30;;;13.63;;
12635;SDS011;6383;50.830;7.210;2022-11-14T14:51:31;22.70;;;15.32;;
12635;SDS011;6383;50.830;7.210;2022-11-14T14:54:01;17.17;;;13.80;;
12635;SDS011;6383;50.830;7.210;2022-11-14T14:56:33;21.23;;;16.42;;
12635;SDS011;6383;50.830;7.210;2022-11-14T14:59:14;19.00;;;14.35;;
12635;SDS011;6383;50.830;7.210;2022-11-14T15:01:46;16.75;;;13.93;;
12635;SDS011;6383;50.830;7.210;2022-11-14T15:04:14;21.92;;;14.73;;
12635;SDS011;6383;50.830;7.210;2022-11-14T15:06:45;18.52;;;15.35;;
12635;SDS011;6383;50.830;7.210;2022-11-14T15:09:16;19.08;;;14.65;;
12635;SDS011;6383;50.830;7.210;2022-11-14T15:11:49;18.73;;;13.68;;
12635;SDS011;6383;50.830;7.210;2022-11-14T15:14:19;21.58;;;14.32;;
12635;SDS011;6383;50.830;7.210;2022-11-14T15:16:52;19.52;;;13.90;;
12635;SDS011;6383;50.830;7.210;2022-11-14T15:19:22;20.23;;;15.13;;
12635;SDS011;6383;50.830;7.210;2022-11-14T15:27:49;21.27;;;14.50;;
12635;SDS011;6383;50.830;7.210;2022-11-14T19:42:41;10.48;;;9.15;;
12635;SDS011;6383;50.830;7.210;2022-11-14T19:45:10;10.68;;;9.13;;
12635;SDS011;6383;50.830;7.210;2022-11-14T19:47:38;10.60;;;8.45;;
12635;SDS011;6383;50.830;7.210;2022-11-14T19:50:13;13.13;;;10.75;;
12635;SDS011;6383;50.830;7.210;2022-11-14T19:52:41;16.48;;;12.15;;
12635;SDS011;6383;50.830;7.210;2022-11-14T19:55:12;12.35;;;10.57;;
12635;SDS011;6383;50.830;7.210;2022-11-14T19:57:42;13.45;;;11.23;;
12635;SDS011;6383;50.830;7.210;2022-11-14T20:00:15;16.08;;;10.95;;
12635;SDS011;6383;50.830;7.210;2022-11-14T20:07:39;10.60;;;8.95;;
12635;SDS011;6383;50.830;7.210;2022-11-14T20:10:09;14.45;;;9.77;;
12635;SDS011;6383;50.830;7.210;2022-11-14T20:15:06;11.40;;;8.60;;
12635;SDS011;6383;50.830;7.210;2022-11-14T20:17:34;9.43;;;8.25;;
12635;SDS011;6383;50.830;7.210;2022-11-14T20:20:03;10.15;;;7.93;;
12635;SDS011;6383;50.830;7.210;2022-11-14T20:22:34;11.02;;;8.45;;
12635;SDS011;6383;50.830;7.210;2022-11-14T20:25:04;10.30;;;7.60;;
12635;SDS011;6383;50.830;7.210;2022-11-14T20:27:34;12.65;;;9.45;;
12635;SDS011;6383;50.830;7.210;2022-11-14T20:30:03;8.52;;;7.40;;
12635;SDS011;6383;50.830;7.210;2022-11-14T20:32:32;8.55;;;7.60;;
12635;SDS011;6383;50.830;7.210;2022-11-14T20:35:01;8.18;;;7.38;;
12635;SDS011;6383;50.830;7.210;2022-11-14T20:37:31;8.45;;;7.63;;
12635;SDS011;6383;50.830;7.210;2022-11-14T20:39:59;8.52;;;7.57;;
12635;SDS011;6383;50.830;7.210;2022-11-14T20:42:28;9.68;;;7.50;;
12635;SDS011;6383;50.830;7.210;2022-11-14T20:44:56;8.85;;;6.35;;
12635;SDS011;6383;50.830;7.210;2022-11-14T20:47:27;8.60;;;7.68;;
12635;SDS011;6383;50.830;7.210;2022-11-14T20:49:57;9.50;;;6.90;;
12635;SDS011;6383;50.830;7.210;2022-11-14T20:52:24;8.70;;;7.20;;
12635;SDS011;6383;50.830;7.210;2022-11-14T20:54:54;7.05;;;6.35;;
12635;SDS011;6383;50.830;7.210;2022-11-14T20:57:22;9.85;;;7.53;;